createdAt,value
2019-02-25T00:05:36.361Z,101239.80
2019-02-25T00:15:41.044Z,101247.05
2019-02-25T00:25:45.721Z,101235.22
2019-02-25T00:35:50.420Z,101236.86
2019-02-25T00:45:55.105Z,101248.78
2019-02-25T00:55:59.801Z,101239.81
2019-02-25T01:06:05.099Z,101218.77
2019-02-25T01:16:09.777Z,101232.06
2019-02-25T01:26:14.470Z,101228.36
2019-02-25T01:36:19.165Z,101212.89
2019-02-25T01:46:23.841Z,101200.13
2019-02-25T01:56:28.534Z,101179.97
2019-02-25T02:06:33.209Z,101143.61
2019-02-25T02:16:37.882Z,101162.98
2019-02-25T02:26:42.589Z,101158.13
2019-02-25T02:36:47.265Z,101151.83
2019-02-25T02:47:07.216Z,101140.80
2019-02-25T02:57:11.889Z,101134.66
2019-02-25T03:07:17.202Z,101134.27
2019-02-25T03:17:21.894Z,101140.58
2019-02-25T03:27:26.581Z,101133.53
2019-02-25T03:37:31.357Z,101135.41
2019-02-25T03:47:36.053Z,101129.17
2019-02-25T03:57:40.726Z,101120.98
2019-02-25T04:07:45.503Z,101125.58
2019-02-25T04:17:50.310Z,101120.84
2019-02-25T04:27:54.994Z,101123.97
2019-02-25T04:37:59.691Z,101125.17
2019-02-25T04:48:05.109Z,101116.39
2019-02-25T04:58:09.886Z,101116.27
2019-02-25T05:08:14.638Z,101123.14
2019-02-25T05:18:19.362Z,101124.71
2019-02-25T05:28:24.032Z,101130.73
2019-02-25T05:38:28.936Z,101122.53
2019-02-25T05:48:33.620Z,101119.75
2019-02-25T05:58:38.529Z,101095.08
2019-02-25T06:08:43.203Z,101119.02
2019-02-25T06:18:47.889Z,101127.95
2019-02-25T06:28:52.566Z,101119.48
2019-02-25T06:38:57.252Z,101130.28
2019-02-25T06:49:01.935Z,101139.00
2019-02-25T06:59:06.657Z,101131.24
2019-02-25T07:09:12.953Z,101134.84
2019-02-25T07:19:19.175Z,101124.24
2019-02-25T07:29:40.655Z,101125.94
2019-02-25T07:39:47.179Z,101112.45
2019-02-25T07:50:05.694Z,101105.38
2019-02-25T08:00:13.136Z,101087.03
2019-02-25T08:10:25.514Z,101080.30
2019-02-25T08:20:31.993Z,101091.80
2019-02-25T08:30:56.601Z,101114.37
2019-02-25T08:41:21.594Z,101110.33
2019-02-25T08:51:26.316Z,101103.08
2019-02-25T09:01:31.030Z,101109.59
2019-02-25T09:11:35.825Z,101102.09
2019-02-25T09:21:40.703Z,101102.52
2019-02-25T09:31:46.433Z,101092.00
2019-02-25T09:41:51.109Z,101085.08
2019-02-25T09:51:55.797Z,101073.90
2019-02-25T10:02:00.679Z,101068.14
2019-02-25T10:12:05.468Z,101047.02
2019-02-25T10:22:10.357Z,101054.32
2019-02-25T10:32:15.059Z,101040.22
2019-02-25T10:42:19.738Z,101029.14
2019-02-25T10:52:24.419Z,101008.95
2019-02-25T11:02:29.109Z,100999.80
2019-02-25T11:12:33.788Z,100984.05
2019-02-25T11:22:39.906Z,100981.61
2019-02-25T11:32:45.059Z,100973.90
2019-02-25T11:42:49.817Z,100964.91
2019-02-25T11:52:54.481Z,100942.89
2019-02-25T12:02:59.161Z,100905.64
2019-02-25T12:13:05.286Z,100897.48
2019-02-25T12:23:10.702Z,100874.11
2019-02-25T12:33:16.556Z,100868.53
2019-02-25T12:43:21.833Z,100878.38
2019-02-25T12:53:26.968Z,100867.20
2019-02-25T13:03:32.699Z,100845.74
2019-02-25T13:13:37.710Z,100834.00
2019-02-25T13:23:44.042Z,100834.13
2019-02-25T13:33:49.660Z,100839.03
2019-02-25T13:43:58.932Z,100819.08
2019-02-25T13:54:10.083Z,100819.68
2019-02-25T14:04:15.247Z,100792.87
2019-02-25T14:14:20.844Z,100773.47
2019-02-25T14:24:26.131Z,100766.77
2019-02-25T14:45:21.631Z,100767.56
2019-02-25T14:55:25.709Z,100780.04
2019-02-25T15:05:30.997Z,100764.73
2019-02-25T15:15:37.479Z,100759.19
2019-02-25T15:25:45.473Z,100753.95
2019-02-25T15:35:51.799Z,100741.71
2019-02-25T15:45:58.550Z,100742.56
2019-02-25T15:56:05.451Z,100746.88
2019-02-25T16:06:11.362Z,100734.41
2019-02-25T16:16:17.238Z,100747.78
2019-02-25T16:26:22.885Z,100755.91
2019-02-25T16:36:30.534Z,100757.83
2019-02-25T16:46:38.551Z,100772.48
2019-02-25T16:56:42.793Z,100757.48
2019-02-25T17:06:49.151Z,100760.95
2019-02-25T17:16:57.032Z,100751.11
2019-02-25T17:27:04.630Z,100742.52
2019-02-25T17:37:10.771Z,100736.20
2019-02-25T17:47:24.030Z,100733.06
2019-02-25T17:57:25.685Z,100747.88
2019-02-25T18:07:31.696Z,100748.13
2019-02-25T18:17:38.903Z,100738.94
2019-02-25T18:27:49.708Z,100754.52
2019-02-25T18:37:53.066Z,100743.67
2019-02-25T18:47:58.978Z,100747.34
2019-02-25T18:58:07.898Z,100758.30
2019-02-25T19:08:20.257Z,100759.14
2019-02-25T19:18:26.424Z,100724.82
2019-02-25T19:28:32.786Z,100715.67
2019-02-25T19:38:41.928Z,100721.50
2019-02-25T19:48:47.988Z,100719.03
2019-02-25T19:58:53.345Z,100720.52
2019-02-25T20:09:00.426Z,100710.16
2019-02-25T20:19:08.797Z,100699.02
2019-02-25T20:29:14.542Z,100706.11
2019-02-25T20:39:20.533Z,100692.14
2019-02-25T20:49:29.458Z,100694.48
2019-02-25T20:59:34.865Z,100705.41
2019-02-25T21:09:42.269Z,100704.91
2019-02-25T21:19:47.617Z,100696.70
2019-02-25T21:29:56.543Z,100671.09
2019-02-25T21:40:02.909Z,100655.86
2019-02-25T21:50:12.123Z,100655.47
2019-02-25T22:00:24.539Z,100642.75
2019-02-25T22:10:29.994Z,100639.05
2019-02-25T22:20:37.657Z,100641.05
2019-02-25T22:30:42.929Z,100629.44
2019-02-25T22:40:50.980Z,100626.56
2019-02-25T22:50:57.729Z,100617.59
2019-02-25T23:01:05.478Z,100600.23
2019-02-25T23:11:14.448Z,100581.22
2019-02-25T23:21:23.751Z,100576.81
2019-02-25T23:31:29.782Z,100561.64
2019-02-25T23:41:36.252Z,100562.50
2019-02-25T23:51:41.582Z,100553.47
